EW9798 Weather Reports


Display with metric or nautical units.
time (UTC)temp
F
wind
direction
speed
MPH
gust
MPH
rain 1hr
in
rain 24hr
in
rain mn
in
humidity
%
barometer
mb
20210615064543 57 148 1.0 0.0 0.00 0.15 0.15 93 1019.7
20210615063042 57 119 4.0 0.0 0.01 0.15 0.15 92 1019.3
20210615061528 57 123 3.0 0.0 0.01 0.17 0.15 91 1019.3
20210615060033 57 148 3.0 0.0 0.01 0.24 0.15 90 1019.7
20210615054528 58 118 4.0 0.0 0.01 0.26 0.15 88 1019.3
20210615053033 58 114 4.0 0.0 0.00 0.25 0.14 86 1019.3
20210615051607 59 104 3.0 0.0 0.00 0.25 0.14 84 1019.7
20210615050025 59 89 2.0 0.0 0.00 0.25 0.14 83 1019.3
20210615044553 60 113 3.0 0.0 0.00 0.25 0.14 81 1019.0
20210615043025 61 187 1.0 0.0 0.00 0.25 0.14 77 1018.7
20210615041533 62 244 1.0 0.0 0.00 0.26 0.14 74 1018.3
20210615040046 62 256 3.0 0.0 0.00 0.26 0.14 73 1018.3
20210615034530 62 259 3.0 0.0 0.00 0.28 0.14 72 1018.3
20210615033042 63 256 5.0 0.0 0.00 0.32 0.14 70 1018.3
20210615031525 64 294 3.0 0.0 0.00 0.38 0.14 68 1018.3
20210615030028 64 294 3.0 0.0 0.00 0.38 0.14 68 1018.3
20210615024538 65 305 4.0 0.0 0.00 0.40 0.14 66 1018.0
20210615023055 65 322 4.0 0.0 0.00 0.56 0.14 65 1018.0
20210615021537 65 322 7.0 0.0 0.00 0.56 0.14 64 1018.0
20210615020104 66 322 6.0 0.0 0.00 0.56 0.14 63 1018.0
20210615014603 67 322 5.0 0.0 0.00 0.59 0.14 62 1018.0
20210615013105 67 309 5.0 0.0 0.00 0.59 0.14 63 1018.0
20210615011530 65 305 6.0 0.0 0.00 0.59 0.14 66 1018.0
20210615010103 66 316 3.0 0.0 0.00 0.59 0.14 69 1018.3
20210615004527 66 294 1.0 0.0 0.00 0.66 0.14 72 1018.3
20210615003041 66 257 1.0 0.0 0.00 0.76 0.14 73 1018.3
20210615001531 66 255 2.0 0.0 0.00 0.76 0.14 75 1018.3
20210615000029 65 286 1.0 0.0 0.00 0.76 0.14 78 1018.3
20210614234530 63 333 3.0 0.0 0.00 0.76 0.14 79 1018.7
20210614233034 62 7 3.0 0.0 0.00 0.76 0.14 83 1018.7
20210614231614 61 10 2.0 0.0 0.00 0.76 0.14 80 1018.7
20210614230036 62 349 3.0 0.0 0.00 0.76 0.14 77 1018.7
20210614224525 63 324 3.0 0.0 0.00 0.76 0.14 75 1018.7
20210614223103 64 311 5.0 0.0 0.00 0.76 0.14 76 1018.3
20210614221547 65 300 5.0 0.0 0.00 0.76 0.14 76 1018.0
20210614220025 65 316 8.0 0.0 0.00 0.76 0.14 76 1018.0
20210614214555 66 324 7.0 0.0 0.00 0.76 0.14 77 1017.6
20210614213035 66 331 5.0 0.0 0.00 0.76 0.14 81 1017.6
20210614211537 64 353 4.0 0.0 0.00 0.76 0.14 83 1018.0
20210614210054 65 329 5.0 0.0 0.00 0.76 0.14 84 1018.0
20210614204553 65 341 4.0 0.0 0.00 0.76 0.14 83 1017.6
20210614203030 65 5 4.0 0.0 0.00 0.76 0.14 85 1018.0
20210614201535 65 27 4.0 0.0 0.00 0.76 0.14 88 1017.6
20210614200052 63 2 2.0 0.0 0.00 0.76 0.14 90 1018.0
20210614194533 63 25 1.0 0.0 0.00 0.76 0.14 92 1018.0
20210614193029 62 357 1.0 0.0 0.00 0.76 0.14 94 1018.0
20210614191526 60 77 0.0 0.0 0.01 0.76 0.14 96 1018.3
20210614184537 60 337 0.0 0.0 0.03 0.76 0.14 96 1018.0
20210614181531 60 337 0.0 0.0 0.06 0.75 0.13 96 1018.0
20210614180032 60 278 0.0 0.0 0.06 0.75 0.13 97 1018.0
20210614174528 60 270 0.0 0.0 0.04 0.73 0.11 97 1017.6
20210614173031 60 270 0.0 0.0 0.01 0.70 0.08 98 1018.0
20210614171535 59 270 0.0 0.0 0.00 0.69 0.07 99 1017.6
20210614170031 59 283 0.0 0.0 0.00 0.69 0.07 99 1017.6
20210614164527 59 337 0.0 0.0 0.00 0.69 0.07 99 1017.6
20210614163035 59 337 0.0 0.0 0.00 0.69 0.07 99 1017.6
20210614161534 59 337 0.0 0.0 0.00 0.69 0.07 99 1017.6
20210614160027 58 337 0.0 0.0 0.00 0.69 0.07 99 1018.0
20210614154530 58 339 1.0 0.0 0.00 0.69 0.07 99 1017.6
20210614153025 59 323 2.0 0.0 0.00 0.69 0.07 99 1017.6
20210614151536 58 337 1.0 0.0 0.00 0.69 0.07 99 1017.3
20210614150026 58 337 0.0 0.0 0.00 0.69 0.07 99 1017.3
20210614144533 58 337 0.0 0.0 0.00 0.69 0.07 99 1017.3
20210614143028 57 287 0.0 0.0 0.00 0.69 0.07 99 1017.3
20210614141528 58 225 0.0 0.0 0.00 0.69 0.07 99 1017.3
20210614140034 57 225 0.0 0.0 0.00 0.69 0.07 99 1017.3
20210614134530 57 225 0.0 0.0 0.00 0.69 0.07 99 1017.3
20210614133028 57 211 0.0 0.0 0.00 0.69 0.07 99 1016.9
20210614131528 56 135 0.0 0.0 0.00 0.69 0.07 99 1016.9
20210614130034 56 135 0.0 0.0 0.00 0.69 0.07 99 1016.9
20210614124529 56 135 0.0 0.0 0.00 0.69 0.07 99 1016.6
20210614123034 56 135 0.0 0.0 0.00 0.69 0.07 99 1016.6
20210614121538 56 135 0.0 0.0 0.00 0.69 0.07 99 1016.6
20210614120031 56 135 1.0 0.0 0.00 0.69 0.07 99 1016.6
20210614114523 56 117 0.0 0.0 0.00 0.69 0.07 99 1016.6
20210614113038 56 90 0.0 0.0 0.00 0.69 0.07 99 1016.6
20210614111542 56 127 0.0 0.0 0.00 0.69 0.07 99 1016.6
20210614110028 56 135 0.0 0.0 0.00 0.69 0.07 99 1016.6
20210614104534 56 135 0.0 0.0 0.00 0.69 0.07 99 1016.2
20210614103029 56 134 2.0 0.0 0.00 0.69 0.07 99 1016.2
20210614101533 56 135 2.0 0.0 0.00 0.69 0.07 98 1016.6
20210614100023 56 125 3.0 0.0 0.00 0.69 0.07 98 1016.2
20210614094537 56 118 2.0 0.0 0.01 0.69 0.07 98 1016.2
20210614093025 57 145 0.0 0.0 0.05 0.69 0.07 98 1015.9
20210614091526 57 114 3.0 0.0 0.06 0.69 0.07 98 1015.9
20210614090037 58 130 2.0 0.0 0.06 0.70 0.07 98 1015.9
20210614084538 58 134 3.0 0.0 0.05 0.70 0.06 98 1016.2
20210614083039 58 198 1.0 0.0 0.01 0.66 0.02 98 1016.2
20210614081531 58 318 1.0 0.0 0.00 0.65 0.01 98 1015.5
20210614080025 58 207 1.0 0.0 0.00 0.65 0.01 98 1015.2
20210614074526 58 202 0.0 0.0 0.01 0.65 0.01 98 1015.5
20210614073033 59 202 0.0 0.0 0.01 0.65 0.01 98 1015.5
20210614071527 59 202 0.0 0.0 0.03 0.65 0.01 98 1015.9
20210614070026 59 157 1.0 0.0 0.10 0.65 0.01 98 1015.9